Time;durP1;ratioP1;P1;durP2;ratioP2;P2;SDS_P1;SDS_P2;PMS_P1;PMS_P2;Temp;Humidity;BMP_temperature;BMP_pressure;BME280_temperature;BME280_humidity;BME280_pressure;Samples;Min_cycle;Max_cycle;Signal;HPM_P1;HPM_P2
2022/07/01 00:01:15;;;;;;;0.30;0.30;;;18.10;61.00;20.30;93916.00;;;;10566441;27;45045;-65
2022/07/01 00:06:36;;;;;;;0.30;0.30;;;18.10;61.00;20.30;93906.00;;;;10567340;27;45062;-65
2022/07/01 00:11:58;;;;;;;0.50;0.20;;;18.10;61.30;20.30;93921.00;;;;10567246;27;45273;-65
2022/07/01 00:17:18;;;;;;;0.30;0.30;;;18.10;61.00;20.30;93916.00;;;;10567203;27;45258;-64
2022/07/01 00:22:39;;;;;;;0.30;0.20;;;18.10;61.00;20.30;93916.00;;;;10566963;27;45245;-65
2022/07/01 00:28:01;;;;;;;0.38;0.38;;;18.10;61.00;20.20;93909.00;;;;10566417;27;45113;-65
2022/07/01 00:33:21;;;;;;;0.28;0.28;;;18.10;61.80;20.20;93909.00;;;;10566802;27;45128;-65
2022/07/01 00:38:41;;;;;;;0.35;0.35;;;18.10;61.00;20.20;93894.00;;;;10565832;27;45292;-65
2022/07/01 00:44:04;;;;;;;0.40;0.30;;;18.10;61.00;20.20;93906.00;;;;10566520;27;45110;-65
2022/07/01 00:49:25;;;;;;;0.47;0.30;;;18.10;61.00;20.20;93920.00;;;;10565703;27;45256;-64
2022/07/01 00:54:46;;;;;;;0.20;0.20;;;18.10;61.00;20.20;93912.00;;;;10566176;27;45250;-65
2022/07/01 01:00:12;;;;;;;0.20;0.20;;;18.10;61.00;20.20;93910.00;;;;10560668;27;45246;-65
2022/07/01 01:05:33;;;;;;;0.65;0.38;;;18.10;61.00;20.20;93911.00;;;;10561555;27;45203;-65
2022/07/01 01:10:54;;;;;;;0.30;0.30;;;18.10;61.00;20.20;93924.00;;;;10564253;27;45209;-64
2022/07/01 01:16:21;;;;;;;0.30;0.30;;;18.10;61.00;20.20;93912.00;;;;10565194;27;45767;-65
2022/07/01 01:21:43;;;;;;;0.23;0.23;;;18.00;60.90;20.20;93887.00;;;;10565004;27;45150;-65
2022/07/01 01:27:04;;;;;;;0.38;0.30;;;18.10;60.90;20.20;93946.00;;;;10565192;27;45830;-65
2022/07/01 01:32:24;;;;;;;0.20;0.20;;;18.10;61.70;20.20;93938.00;;;;10564925;27;45294;-65
2022/07/01 01:37:46;;;;;;;0.35;0.30;;;18.10;60.90;20.20;93907.00;;;;10563931;27;45164;-65
2022/07/01 01:43:07;;;;;;;0.30;0.30;;;18.10;60.90;20.20;93906.00;;;;10564424;27;45237;-65
2022/07/01 01:48:27;;;;;;;0.20;0.20;;;18.10;60.90;20.20;93915.00;;;;10563587;27;45660;-64
2022/07/01 01:53:49;;;;;;;0.20;0.20;;;18.10;60.90;20.20;93929.00;;;;10564356;27;45257;-64
2022/07/01 01:59:11;;;;;;;0.20;0.20;;;18.10;60.80;20.20;93928.00;;;;10563540;27;45108;-65
2022/07/01 02:04:33;;;;;;;0.32;0.30;;;18.10;60.90;20.20;93964.00;;;;10563940;27;45253;-65
2022/07/01 02:09:55;;;;;;;0.30;0.30;;;18.10;60.90;20.20;93986.00;;;;10562875;27;45885;-65
2022/07/01 02:15:15;;;;;;;0.32;0.30;;;18.00;60.90;20.20;94019.00;;;;10563396;27;45198;-65
2022/07/01 02:20:36;;;;;;;0.50;0.30;;;18.10;60.90;20.20;94028.00;;;;10562705;27;45737;-65
2022/07/01 02:25:58;;;;;;;0.30;0.20;;;18.10;60.90;20.20;94019.00;;;;10563193;27;45201;-64
2022/07/01 02:31:18;;;;;;;0.43;0.30;;;18.00;60.70;20.20;94041.00;;;;10562552;27;45753;-64
2022/07/01 02:36:39;;;;;;;0.20;0.20;;;18.00;60.70;20.20;94037.00;;;;10562819;27;45733;-65
2022/07/01 02:47:41;;;;;;;0.20;0.20;;;18.00;60.70;20.20;94027.00;;;;10558566;27;45289;-64
2022/07/01 02:53:02;;;;;;;0.20;0.20;;;18.00;60.70;20.20;94053.00;;;;10562460;27;45150;-65
2022/07/01 02:58:26;;;;;;;0.20;0.20;;;18.00;60.70;20.20;94016.00;;;;10561881;27;45817;-64
2022/07/01 03:03:46;;;;;;;0.30;0.30;;;18.00;60.60;20.20;94031.00;;;;10562398;27;45147;-65
2022/07/01 03:09:07;;;;;;;0.30;0.30;;;18.00;60.70;20.20;94007.00;;;;10561351;27;45111;-64
2022/07/01 03:14:29;;;;;;;0.30;0.20;;;18.00;60.60;20.20;94020.00;;;;10561723;27;45757;-65
2022/07/01 03:19:51;;;;;;;0.20;0.20;;;18.00;60.60;20.20;94019.00;;;;10561189;27;45209;-64
2022/07/01 03:25:12;;;;;;;0.20;0.20;;;18.00;60.60;20.20;94032.00;;;;10561379;27;45102;-65
2022/07/01 03:30:34;;;;;;;0.43;0.30;;;18.00;60.70;20.20;94037.00;;;;10561225;27;45733;-65
2022/07/01 03:35:54;;;;;;;0.28;0.28;;;18.00;60.60;20.20;94042.00;;;;10566965;27;45194;-65
2022/07/01 03:41:15;;;;;;;0.20;0.20;;;18.00;60.70;20.10;94051.00;;;;10568077;27;45797;-65
2022/07/01 03:46:37;;;;;;;0.35;0.17;;;18.00;60.70;20.10;94073.00;;;;10568057;27;45192;-65
2022/07/01 03:51:58;;;;;;;0.10;0.10;;;18.00;60.70;20.10;94077.00;;;;10567973;27;45833;-65
2022/07/01 03:57:18;;;;;;;0.28;0.20;;;18.00;60.60;20.10;94074.00;;;;10567836;27;45182;-65
2022/07/01 04:02:40;;;;;;;0.20;0.20;;;18.00;60.60;20.10;94068.00;;;;10568262;27;45307;-65
2022/07/01 04:08:00;;;;;;;0.50;0.20;;;18.00;60.60;20.10;94076.00;;;;10566992;27;45749;-63
2022/07/01 04:13:21;;;;;;;0.28;0.25;;;18.00;60.60;20.10;94054.00;;;;10568110;27;45189;-63
2022/07/01 04:18:42;;;;;;;0.10;0.10;;;18.00;60.60;20.10;94049.00;;;;10566881;27;45182;-63
2022/07/01 04:24:04;;;;;;;0.20;0.20;;;18.00;60.60;20.10;94053.00;;;;10567646;27;45273;-63
2022/07/01 04:29:24;;;;;;;0.20;0.20;;;18.00;60.60;20.10;94042.00;;;;10566345;27;45116;-63
2022/07/01 04:34:46;;;;;;;0.68;0.30;;;18.00;60.60;20.10;94029.00;;;;10567003;27;45169;-63
2022/07/01 04:40:09;;;;;;;0.25;0.25;;;18.00;60.60;20.10;94029.00;;;;10565904;27;45703;-63
2022/07/01 04:45:29;;;;;;;0.20;0.20;;;18.00;60.60;20.10;94036.00;;;;10564669;27;45746;-63
2022/07/01 04:50:51;;;;;;;0.52;0.10;;;17.90;60.50;20.10;94092.00;;;;10565892;27;45769;-63
2022/07/01 04:56:11;;;;;;;0.20;0.10;;;18.00;60.60;20.10;94094.00;;;;10565881;27;45222;-63
2022/07/01 05:01:32;;;;;;;0.10;0.10;;;18.00;60.60;20.10;94079.00;;;;10566093;27;45667;-63
2022/07/01 05:06:54;;;;;;;0.17;0.17;;;17.90;60.50;20.10;94080.00;;;;10566348;27;45425;-63
2022/07/01 05:12:14;;;;;;;0.52;0.40;;;18.00;60.50;20.10;94097.00;;;;10565340;27;45535;-63
2022/07/01 05:23:15;;;;;;;0.10;0.10;;;18.00;60.50;20.10;94067.00;;;;10565485;27;45194;-63
2022/07/01 05:28:35;;;;;;;0.10;0.10;;;17.90;60.40;20.10;94083.00;;;;10564404;27;45857;-63
2022/07/01 05:33:55;;;;;;;0.20;0.20;;;17.90;60.40;20.10;94080.00;;;;10565129;27;45758;-63
2022/07/01 05:39:17;;;;;;;0.20;0.20;;;17.90;60.40;20.10;94101.00;;;;10564916;27;45237;-62
2022/07/01 05:44:38;;;;;;;0.10;0.10;;;18.00;60.50;20.10;94084.00;;;;10564747;27;45169;-63
2022/07/01 05:49:58;;;;;;;0.10;0.10;;;17.90;60.40;20.10;94046.00;;;;10563582;27;45194;-62
2022/07/01 05:55:20;;;;;;;0.20;0.20;;;17.90;60.40;20.10;94107.00;;;;10563834;27;45230;-61
2022/07/01 06:00:43;;;;;;;0.15;0.10;;;17.90;60.40;20.10;94114.00;;;;10563722;27;45243;-62
2022/07/01 06:06:03;;;;;;;0.10;0.08;;;17.90;60.40;20.00;94091.00;;;;10563602;27;45154;-62
2022/07/01 06:11:26;;;;;;;0.10;0.10;;;17.90;60.40;20.10;94114.00;;;;10563488;27;45113;-62
2022/07/01 06:16:46;;;;;;;0.30;0.22;;;17.90;60.50;20.10;94117.00;;;;10563046;27;45869;-61
2022/07/01 06:22:07;;;;;;;0.15;0.03;;;17.90;60.50;20.10;94106.00;;;;10562882;27;45691;-65
2022/07/01 06:27:29;;;;;;;0.10;0.10;;;17.90;60.50;20.10;94101.00;;;;10563000;27;45110;-62
2022/07/01 06:32:50;;;;;;;0.30;0.20;;;17.90;60.50;20.10;94107.00;;;;10562940;27;45799;-62
2022/07/01 06:38:11;;;;;;;0.10;0.10;;;17.90;60.40;20.10;94091.00;;;;10562153;27;45695;-62
2022/07/01 06:43:34;;;;;;;0.17;0.17;;;17.90;60.50;20.10;94096.00;;;;10562708;27;46302;-64
2022/07/01 06:48:55;;;;;;;0.17;0.10;;;17.90;60.50;20.10;94105.00;;;;10561464;27;45185;-63
2022/07/01 06:54:17;;;;;;;0.10;0.10;;;17.90;60.40;20.10;94102.00;;;;10562059;27;45339;-61
2022/07/01 06:59:39;;;;;;;0.10;0.10;;;17.90;60.40;20.10;94093.00;;;;10561509;27;45153;-63
2022/07/01 07:04:59;;;;;;;0.17;0.13;;;17.90;60.40;20.10;94084.00;;;;10562139;27;45283;-62
2022/07/01 07:10:20;;;;;;;0.60;0.10;;;17.90;60.40;20.10;94081.00;;;;10560744;27;45865;-62
2022/07/01 07:15:42;;;;;;;0.10;0.10;;;17.90;60.40;20.10;94111.00;;;;10561266;27;45154;-62
2022/07/01 07:21:03;;;;;;;0.10;0.10;;;17.90;60.40;20.10;94130.00;;;;10561679;27;45369;-62
2022/07/01 07:26:23;;;;;;;0.40;0.10;;;17.90;60.40;20.10;94133.00;;;;10561018;27;45102;-63
2022/07/01 07:31:45;;;;;;;0.10;0.10;;;17.90;60.40;20.10;94123.00;;;;10560915;27;45893;-62
2022/07/01 07:37:06;;;;;;;0.10;0.10;;;17.90;60.40;20.10;94120.00;;;;10560976;27;45680;-62
2022/07/01 07:42:27;;;;;;;0.20;0.20;;;17.90;60.40;20.00;94129.00;;;;10560568;27;45126;-62
2022/07/01 07:47:51;;;;;;;0.20;0.20;;;17.90;60.40;20.00;94123.00;;;;10560200;27;45179;-65
2022/07/01 07:53:11;;;;;;;0.10;0.10;;;17.90;60.40;20.00;94119.00;;;;10560806;27;45844;-62
2022/07/01 07:58:32;;;;;;;0.10;0.10;;;17.90;60.40;20.10;94139.00;;;;10560037;27;45732;-64
2022/07/01 08:03:54;;;;;;;0.10;0.10;;;17.90;60.40;20.10;94138.00;;;;10560497;27;45205;-64
2022/07/01 08:09:15;;;;;;;0.10;0.10;;;17.90;60.40;20.00;94140.00;;;;10559378;27;45163;-62
2022/07/01 08:14:36;;;;;;;0.10;0.10;;;17.90;60.30;20.00;94159.00;;;;10560634;27;45206;-62
2022/07/01 08:19:57;;;;;;;0.10;0.10;;;17.90;60.40;20.00;94160.00;;;;10562394;27;45154;-62
2022/07/01 08:25:18;;;;;;;0.10;0.10;;;17.90;60.30;20.00;94150.00;;;;10567390;27;45103;-62
2022/07/01 08:30:39;;;;;;;0.00;0.00;;;17.90;60.30;20.00;94157.00;;;;10567110;27;45296;-61
2022/07/01 08:36:01;;;;;;;0.00;0.00;;;17.90;60.40;20.00;94149.00;;;;10566378;27;45217;-63
2022/07/01 08:41:22;;;;;;;0.10;0.00;;;17.90;60.30;20.00;94160.00;;;;10565993;27;45141;-62
2022/07/01 08:46:42;;;;;;;0.10;0.10;;;17.90;60.40;20.00;94154.00;;;;10566382;27;45679;-62
2022/07/01 08:52:05;;;;;;;0.08;0.08;;;17.90;60.30;20.00;94156.00;;;;10566019;27;45880;-62
2022/07/01 08:57:25;;;;;;;0.10;0.10;;;17.90;60.30;20.00;94152.00;;;;10565702;27;45219;-62
2022/07/01 09:02:58;;;;;;;0.20;0.15;;;17.90;60.40;20.00;94164.00;;;;10565981;27;45102;-62
2022/07/01 09:08:20;;;;;;;0.15;0.10;;;17.90;60.30;20.00;94167.00;;;;10565417;27;45356;-64
2022/07/01 09:13:41;;;;;;;0.35;0.17;;;17.90;60.30;20.00;94184.00;;;;10565483;27;45916;-65
2022/07/01 09:19:04;;;;;;;0.25;0.20;;;17.90;60.40;20.00;94157.00;;;;10564645;27;45693;-61
2022/07/01 09:24:30;;;;;;;0.10;0.00;;;17.90;60.30;20.00;94164.00;;;;10565251;27;45065;-61
2022/07/01 09:29:51;;;;;;;0.08;0.08;;;17.90;60.30;20.00;94182.00;;;;10563928;27;45212;-62
2022/07/01 09:35:23;;;;;;;0.10;0.10;;;17.90;60.30;20.00;94189.00;;;;10564640;27;45748;-62
2022/07/01 09:40:53;;;;;;;0.10;0.10;;;17.90;60.40;20.00;94185.00;;;;10563866;27;45169;-62
2022/07/01 09:46:13;;;;;;;0.10;0.10;;;17.90;60.30;20.00;94192.00;;;;10564438;27;45870;-62
2022/07/01 09:51:33;;;;;;;0.00;0.00;;;17.90;60.30;20.00;94197.00;;;;10564209;27;45849;-62
2022/07/01 09:56:55;;;;;;;0.10;0.10;;;17.90;60.30;20.00;94202.00;;;;10563875;27;45336;-64
2022/07/01 10:02:19;;;;;;;0.10;0.10;;;17.90;60.30;20.00;94202.00;;;;10564072;27;45699;-61
2022/07/01 10:07:54;;;;;;;0.25;0.10;;;17.90;60.30;20.00;94222.00;;;;10563059;27;45680;-62
2022/07/01 10:13:18;;;;;;;0.10;0.10;;;17.90;60.30;20.00;94221.00;;;;10563485;27;45170;-64
2022/07/01 10:18:39;;;;;;;0.10;0.10;;;17.90;60.30;20.00;94229.00;;;;10563009;27;45257;-62
2022/07/01 10:24:13;;;;;;;0.00;0.00;;;17.90;60.30;20.00;94234.00;;;;10563014;27;45232;-62
2022/07/01 10:29:38;;;;;;;0.10;0.10;;;17.90;60.30;20.00;94238.00;;;;10562457;27;45243;-62
2022/07/01 10:35:07;;;;;;;0.00;0.00;;;17.90;60.30;20.00;94236.00;;;;10563090;27;45168;-62
2022/07/01 10:40:46;;;;;;;0.08;0.08;;;17.90;60.30;20.00;94245.00;;;;10561846;27;45801;-62
2022/07/01 10:46:08;;;;;;;0.10;0.10;;;17.90;60.30;20.00;94249.00;;;;10562359;27;45167;-62
2022/07/01 10:51:53;;;;;;;0.03;0.03;;;17.90;60.30;20.00;94243.00;;;;10562238;27;45117;-63
2022/07/01 10:57:34;;;;;;;0.00;0.00;;;17.90;60.30;20.00;94257.00;;;;10562111;27;45290;-65
2022/07/01 11:02:56;;;;;;;0.10;0.10;;;17.90;60.30;20.00;94256.00;;;;10562187;27;45823;-61
2022/07/01 11:08:17;;;;;;;0.20;0.10;;;17.90;60.30;20.00;94233.00;;;;10561683;27;45197;-62
2022/07/01 11:13:38;;;;;;;0.10;0.00;;;17.90;60.30;20.00;94238.00;;;;10561641;27;45131;-62
2022/07/01 11:19:00;;;;;;;0.10;0.10;;;17.90;60.20;20.00;94239.00;;;;10561174;27;45846;-65
2022/07/01 11:24:22;;;;;;;0.10;0.10;;;17.90;60.20;20.00;94257.00;;;;10561734;27;45392;-61
2022/07/01 11:29:42;;;;;;;0.10;0.10;;;17.90;61.00;20.00;94260.00;;;;10561049;27;45849;-63
2022/07/01 11:39:21;;;;;;;0.10;0.10;;;17.90;60.20;20.00;94260.00;;;;10561553;27;45229;-65
2022/07/01 11:40:48;;;;;;;0.00;0.00;;;17.90;60.20;20.00;94256.00;;;;10560473;27;45242;-65
2022/07/01 11:46:09;;;;;;;0.10;0.10;;;17.90;60.20;20.00;94262.00;;;;10561000;27;45742;-65
2022/07/01 11:51:31;;;;;;;0.13;0.00;;;17.90;60.20;20.00;94258.00;;;;10560652;27;45372;-64
2022/07/01 11:56:52;;;;;;;0.00;0.00;;;17.90;60.10;20.10;94252.00;;;;10566541;27;45791;-65
2022/07/01 12:02:15;;;;;;;0.10;0.10;;;17.90;60.20;20.00;94242.00;;;;10567759;27;45231;-65
2022/07/01 12:07:37;;;;;;;0.10;0.10;;;17.90;60.10;20.00;94247.00;;;;10567441;27;45857;-65
2022/07/01 12:12:58;;;;;;;0.00;0.00;;;17.90;60.10;20.00;94241.00;;;;10567562;27;45263;-64
2022/07/01 12:18:19;;;;;;;0.00;0.00;;;17.90;60.10;20.00;94236.00;;;;10567170;27;45144;-64
2022/07/01 12:23:41;;;;;;;0.00;0.00;;;17.90;60.10;20.10;94246.00;;;;10567505;27;45209;-65
2022/07/01 12:29:02;;;;;;;0.20;0.00;;;17.90;60.10;20.10;94240.00;;;;10566866;27;45194;-65
2022/07/01 12:34:23;;;;;;;0.00;0.00;;;17.90;60.10;20.10;94243.00;;;;10567411;27;45208;-65
2022/07/01 12:39:48;;;;;;;0.10;0.10;;;17.90;60.00;20.10;94241.00;;;;10566168;27;45218;-64
2022/07/01 12:45:11;;;;;;;0.10;0.10;;;17.90;60.00;20.10;94259.00;;;;10567003;27;45281;-65
2022/07/01 12:50:32;;;;;;;0.00;0.00;;;17.90;60.00;20.10;94237.00;;;;10566021;27;45869;-65
2022/07/01 12:55:57;;;;;;;0.10;0.10;;;17.90;60.00;20.00;94238.00;;;;10566085;27;45668;-64
2022/07/01 13:01:18;;;;;;;0.10;0.10;;;17.90;60.00;20.10;94243.00;;;;10565843;27;45168;-64
2022/07/01 13:06:38;;;;;;;0.10;0.10;;;17.90;60.00;20.10;94247.00;;;;10564810;27;45157;-65
2022/07/01 13:12:00;;;;;;;0.00;0.00;;;17.90;60.00;20.10;94246.00;;;;10565560;27;45214;-65
2022/07/01 13:17:21;;;;;;;0.17;0.10;;;17.90;60.00;20.10;94240.00;;;;10565331;27;45190;-65
2022/07/01 13:22:43;;;;;;;0.00;0.00;;;17.90;60.00;20.10;94245.00;;;;10565254;27;45244;-65
2022/07/01 13:28:05;;;;;;;0.05;0.05;;;17.90;59.90;20.10;94249.00;;;;10565098;27;45862;-64
2022/07/01 13:33:25;;;;;;;0.05;0.03;;;17.90;59.90;20.10;94249.00;;;;10564925;27;45254;-65
2022/07/01 13:38:46;;;;;;;0.00;0.00;;;17.90;59.90;20.10;94252.00;;;;10564304;27;45762;-65
2022/07/01 13:44:08;;;;;;;0.03;0.03;;;17.90;59.90;20.10;94245.00;;;;10564719;27;45125;-65
2022/07/01 13:49:29;;;;;;;0.00;0.00;;;17.90;59.90;20.10;94260.00;;;;10564051;27;45672;-65
2022/07/01 13:54:50;;;;;;;0.00;0.00;;;17.90;59.90;20.10;94262.00;;;;10563620;27;45917;-64
2022/07/01 14:00:13;;;;;;;0.05;0.05;;;17.90;59.90;20.10;94268.00;;;;10563696;27;45853;-65
2022/07/01 14:05:34;;;;;;;0.00;0.00;;;17.90;59.90;20.10;94271.00;;;;10563880;27;45268;-64
2022/07/01 14:10:55;;;;;;;0.20;0.10;;;17.90;59.90;20.10;94263.00;;;;10563423;27;45171;-64
2022/07/01 14:16:17;;;;;;;0.00;0.00;;;17.90;59.90;20.10;94274.00;;;;10562977;27;45849;-65
2022/07/01 14:21:37;;;;;;;0.13;0.10;;;17.90;59.90;20.10;94276.00;;;;10563402;27;45224;-65
2022/07/01 14:26:58;;;;;;;0.05;0.05;;;17.90;59.90;20.10;94279.00;;;;10563187;27;45914;-65
2022/07/01 14:32:24;;;;;;;0.00;0.00;;;17.90;59.80;20.10;94273.00;;;;10563295;27;45195;-65
2022/07/01 14:37:44;;;;;;;0.00;0.00;;;17.90;59.90;20.10;94271.00;;;;10562332;27;45126;-65
2022/07/01 14:43:05;;;;;;;0.10;0.10;;;17.90;59.90;20.10;94265.00;;;;10562969;27;45138;-65
2022/07/01 14:48:27;;;;;;;0.10;0.10;;;17.90;59.80;20.10;94282.00;;;;10562013;27;45780;-64
2022/07/01 14:53:47;;;;;;;0.00;0.00;;;17.90;59.80;20.10;94267.00;;;;10562482;27;45406;-65
2022/07/01 14:59:08;;;;;;;0.05;0.05;;;17.90;59.80;20.10;94281.00;;;;10562659;27;45304;-63
2022/07/01 15:04:30;;;;;;;0.10;0.10;;;17.90;59.80;20.10;94263.00;;;;10562325;27;45158;-65
2022/07/01 15:09:50;;;;;;;0.00;0.00;;;17.90;59.80;20.10;94283.00;;;;10561026;27;45235;-64
2022/07/01 15:15:11;;;;;;;0.00;0.00;;;17.90;59.80;20.10;94283.00;;;;10561776;27;45223;-66
2022/07/01 15:20:33;;;;;;;0.00;0.00;;;17.90;59.80;20.10;94271.00;;;;10561687;27;45741;-65
2022/07/01 15:25:54;;;;;;;0.00;0.00;;;17.90;59.80;20.10;94300.00;;;;10561276;27;45213;-65
2022/07/01 15:31:16;;;;;;;0.13;0.00;;;17.90;59.80;20.10;94273.00;;;;10565960;27;45198;-65
2022/07/01 15:36:38;;;;;;;0.10;0.10;;;17.90;59.90;20.10;94292.00;;;;10569188;27;45200;-65
2022/07/01 15:42:02;;;;;;;0.00;0.00;;;18.00;59.90;20.10;94293.00;;;;10568384;27;45107;-65
2022/07/01 15:53:03;;;;;;;0.05;0.03;;;17.90;59.90;20.10;94286.00;;;;10568355;27;45733;-63
2022/07/01 15:58:24;;;;;;;0.10;0.10;;;17.90;59.90;20.10;94284.00;;;;10567658;27;45212;-65
2022/07/01 16:03:48;;;;;;;0.00;0.00;;;17.90;59.90;20.10;94285.00;;;;10568295;27;45157;-65
2022/07/01 16:09:10;;;;;;;0.00;0.00;;;18.00;59.90;20.10;94291.00;;;;10567873;27;45177;-65
2022/07/01 16:14:32;;;;;;;0.30;0.10;;;18.00;59.90;20.10;94290.00;;;;10567615;27;45776;-65
2022/07/01 16:19:54;;;;;;;0.10;0.00;;;17.90;59.80;20.10;94294.00;;;;10567113;27;45688;-64
2022/07/01 16:25:19;;;;;;;0.10;0.10;;;18.00;59.90;20.10;94284.00;;;;10567526;27;45221;-64
2022/07/01 16:30:40;;;;;;;0.00;0.00;;;17.90;59.80;20.10;94287.00;;;;10566941;27;45225;-65
2022/07/01 16:36:06;;;;;;;0.05;0.05;;;18.00;59.90;20.10;94291.00;;;;10566866;27;45121;-65
2022/07/01 16:41:42;;;;;;;0.00;0.00;;;18.00;59.90;20.10;94275.00;;;;10566254;27;45140;-65
2022/07/01 16:47:05;;;;;;;0.03;0.03;;;17.90;59.80;20.10;94285.00;;;;10566369;27;45149;-65
2022/07/01 16:52:37;;;;;;;0.00;0.00;;;18.00;59.80;20.10;94288.00;;;;10566296;27;45163;-65
2022/07/01 16:58:05;;;;;;;0.00;0.00;;;18.00;59.90;20.10;94300.00;;;;10566358;27;45678;-65
2022/07/01 17:03:25;;;;;;;0.00;0.00;;;18.00;59.80;20.10;94306.00;;;;10566151;27;45182;-65
2022/07/01 17:08:46;;;;;;;0.10;0.10;;;17.90;59.80;20.10;94306.00;;;;10565415;27;45850;-64
2022/07/01 17:14:10;;;;;;;0.00;0.00;;;18.00;59.80;20.20;94301.00;;;;10565670;27;45135;-65
2022/07/01 17:19:31;;;;;;;0.10;0.10;;;18.00;59.80;20.10;94300.00;;;;10564849;27;45215;-65
2022/07/01 17:25:01;;;;;;;0.28;0.10;;;18.00;59.80;20.10;94293.00;;;;10565569;27;45226;-65
2022/07/01 17:30:30;;;;;;;0.25;0.10;;;18.00;59.80;20.20;94294.00;;;;10565124;27;45157;-65
2022/07/01 17:35:54;;;;;;;0.20;0.10;;;18.00;59.80;20.20;94300.00;;;;10564719;27;45376;-64
2022/07/01 17:41:19;;;;;;;0.00;0.00;;;18.00;59.80;20.20;94311.00;;;;10579892;22;45213;-62
2022/07/01 17:46:46;;;;;;;0.00;0.00;;;18.00;59.80;20.20;94312.00;;;;10564796;27;45748;-62
2022/07/01 17:52:09;;;;;;;0.00;0.00;;;18.00;59.80;20.20;94336.00;;;;10563679;27;45867;-62
2022/07/01 17:57:31;;;;;;;0.00;0.00;;;18.00;59.80;20.20;94336.00;;;;10564010;27;45268;-62
2022/07/01 18:02:54;;;;;;;0.25;0.10;;;18.00;59.80;20.20;94330.00;;;;10564291;27;45403;-61
2022/07/01 18:08:15;;;;;;;0.00;0.00;;;18.00;59.70;20.20;94332.00;;;;10564460;27;45106;-62
2022/07/01 18:14:03;;;;;;;0.00;0.00;;;18.00;59.70;20.20;94337.00;;;;10564208;27;45803;-62
2022/07/01 18:19:58;;;;;;;0.30;0.10;;;18.00;59.70;20.20;94336.00;;;;10563469;27;45134;-62
2022/07/01 18:25:22;;;;;;;0.05;0.00;;;18.00;59.70;20.20;94341.00;;;;10560201;27;45685;-62
2022/07/01 18:30:48;;;;;;;0.10;0.00;;;18.00;59.80;20.20;94339.00;;;;10563386;27;45169;-62
2022/07/01 18:36:11;;;;;;;0.00;0.00;;;18.00;59.70;20.20;94347.00;;;;10563126;27;45209;-63
2022/07/01 18:41:32;;;;;;;0.00;0.00;;;18.00;59.70;20.20;94344.00;;;;10563878;27;45498;-62
2022/07/01 18:46:53;;;;;;;0.10;0.00;;;18.00;59.70;20.20;94348.00;;;;10563071;27;45456;-61
2022/07/01 18:52:14;;;;;;;0.00;0.00;;;18.00;59.70;20.20;94337.00;;;;10562828;27;45183;-62
2022/07/01 18:57:39;;;;;;;0.00;0.00;;;18.00;59.70;20.20;94331.00;;;;10562791;27;45115;-61
2022/07/01 19:03:00;;;;;;;0.10;0.00;;;18.00;59.70;20.20;94348.00;;;;10561018;27;45232;-62
2022/07/01 19:08:22;;;;;;;0.10;0.10;;;18.00;59.70;20.20;94345.00;;;;10562112;27;45176;-62
2022/07/01 19:13:43;;;;;;;0.00;0.00;;;18.00;59.70;20.20;94342.00;;;;10562015;27;45162;-61
2022/07/01 19:19:03;;;;;;;0.10;0.05;;;18.00;59.70;20.20;94354.00;;;;10561812;27;45779;-62
2022/07/01 19:24:26;;;;;;;0.10;0.00;;;18.00;59.70;20.20;94378.00;;;;10562229;27;45678;-62
2022/07/01 19:29:46;;;;;;;0.00;0.00;;;18.00;59.70;20.20;94377.00;;;;10561142;27;45223;-62
2022/07/01 19:35:08;;;;;;;0.00;0.00;;;18.00;60.40;20.20;94383.00;;;;10561875;27;45102;-62
2022/07/01 19:40:30;;;;;;;0.10;0.00;;;18.00;59.70;20.20;94391.00;;;;10560735;27;45276;-62
2022/07/01 19:45:51;;;;;;;0.00;0.00;;;18.00;59.80;20.20;94392.00;;;;10561591;27;45292;-62
2022/07/01 19:51:13;;;;;;;0.00;0.00;;;18.00;59.70;20.20;94396.00;;;;10561064;27;45250;-62
2022/07/01 19:56:38;;;;;;;0.05;0.00;;;18.00;59.70;20.20;94400.00;;;;10560946;27;45303;-63
2022/07/01 20:01:59;;;;;;;0.00;0.00;;;18.00;59.70;20.20;94410.00;;;;10560713;27;45169;-61
2022/07/01 20:07:19;;;;;;;0.10;0.10;;;18.00;59.70;20.20;94399.00;;;;10560421;27;45214;-62
2022/07/01 20:12:41;;;;;;;0.10;0.10;;;18.00;59.70;20.20;94436.00;;;;10560632;27;45224;-62
2022/07/01 20:18:02;;;;;;;0.05;0.00;;;18.00;59.70;20.20;94418.00;;;;10566082;27;45171;-62
2022/07/01 20:23:24;;;;;;;0.00;0.00;;;18.00;59.70;20.20;94423.00;;;;10567584;27;45212;-61
2022/07/01 20:28:45;;;;;;;0.10;0.10;;;18.00;59.70;20.20;94418.00;;;;10567406;27;45083;-61
2022/07/01 20:34:06;;;;;;;0.00;0.00;;;18.00;59.70;20.20;94435.00;;;;10567895;27;45321;-62
2022/07/01 20:39:27;;;;;;;0.00;0.00;;;18.00;59.60;20.20;94438.00;;;;10565685;27;45194;-62
2022/07/01 20:44:49;;;;;;;0.00;0.00;;;18.00;59.60;20.20;94434.00;;;;10567212;27;45800;-62
2022/07/01 20:50:13;;;;;;;0.00;0.00;;;18.00;59.70;20.20;94444.00;;;;10566349;27;45236;-63
2022/07/01 20:55:34;;;;;;;0.10;0.05;;;18.00;59.70;20.10;94447.00;;;;10566524;27;45178;-63
2022/07/01 21:00:55;;;;;;;0.00;0.00;;;18.00;59.60;20.20;94445.00;;;;10565705;27;45105;-61
2022/07/01 21:06:16;;;;;;;0.00;0.00;;;18.00;59.60;20.20;94459.00;;;;10565729;27;45861;-62
2022/07/01 21:11:36;;;;;;;0.00;0.00;;;18.00;59.60;20.20;94447.00;;;;10566283;27;45766;-61
2022/07/01 21:16:58;;;;;;;0.00;0.00;;;18.00;59.60;20.20;94468.00;;;;10566157;27;45124;-61
2022/07/01 21:22:19;;;;;;;0.00;0.00;;;18.00;59.60;20.20;94451.00;;;;10565412;27;45157;-62
2022/07/01 21:27:40;;;;;;;0.20;0.00;;;18.00;59.60;20.20;94463.00;;;;10564075;27;45783;-61
2022/07/01 21:33:02;;;;;;;0.00;0.00;;;18.00;59.60;20.20;94475.00;;;;10564998;27;45782;-62
2022/07/01 21:38:24;;;;;;;0.00;0.00;;;18.00;59.50;20.20;94472.00;;;;10561859;27;45223;-62
2022/07/01 21:43:49;;;;;;;0.00;0.00;;;18.00;59.50;20.10;94464.00;;;;10560963;27;45152;-63
2022/07/01 21:49:15;;;;;;;0.05;0.00;;;18.00;59.50;20.20;94484.00;;;;10563729;27;45179;-62
2022/07/01 21:54:39;;;;;;;0.17;0.00;;;18.00;59.50;20.20;94486.00;;;;10564787;27;45248;-61
2022/07/01 22:00:03;;;;;;;0.00;0.00;;;18.00;59.50;20.10;94475.00;;;;10564079;27;45220;-62
2022/07/01 22:06:50;;;;;;;0.25;0.00;;;18.00;59.50;20.10;94483.00;;;;10564490;27;45184;-63
2022/07/01 22:11:22;;;;;;;0.10;0.10;;;18.00;59.50;20.10;94468.00;;;;10563931;27;45166;-62
2022/07/01 22:16:45;;;;;;;0.00;0.00;;;18.00;59.50;20.10;94460.00;;;;10563765;27;45167;-65
2022/07/01 22:22:08;;;;;;;0.05;0.05;;;18.00;59.50;20.10;94467.00;;;;10563783;27;45374;-61
2022/07/01 22:27:30;;;;;;;0.00;0.00;;;18.00;59.50;20.10;94478.00;;;;10563972;27;45685;-61
2022/07/01 22:32:52;;;;;;;0.00;0.00;;;18.00;59.50;20.10;94462.00;;;;10563393;27;45284;-61
2022/07/01 22:38:16;;;;;;;0.00;0.00;;;18.00;59.50;20.10;94475.00;;;;10562984;27;45182;-62
2022/07/01 22:43:38;;;;;;;0.00;0.00;;;18.00;59.50;20.10;94470.00;;;;10562996;27;45118;-62
2022/07/01 22:49:04;;;;;;;0.03;0.03;;;18.00;59.50;20.10;94475.00;;;;10562812;27;45256;-61
2022/07/01 22:54:37;;;;;;;0.22;0.00;;;18.00;59.50;20.10;94466.00;;;;10562508;27;45878;-62
2022/07/01 23:00:01;;;;;;;0.05;0.00;;;17.90;59.40;20.10;94455.00;;;;10562257;27;45796;-61
2022/07/01 23:05:24;;;;;;;0.10;0.00;;;17.90;59.40;20.10;94451.00;;;;10562199;27;45153;-62
2022/07/01 23:10:52;;;;;;;0.00;0.00;;;18.00;59.50;20.10;94463.00;;;;10562143;27;45114;-62
2022/07/01 23:16:28;;;;;;;0.00;0.00;;;17.90;59.40;20.10;94471.00;;;;10562081;27;45695;-62
2022/07/01 23:21:49;;;;;;;0.00;0.00;;;17.90;59.40;20.10;94471.00;;;;10562132;27;45052;-62
2022/07/01 23:27:13;;;;;;;0.08;0.08;;;17.90;59.40;20.10;94459.00;;;;10561409;27;45684;-61
2022/07/01 23:32:34;;;;;;;0.10;0.10;;;17.90;59.40;20.10;94462.00;;;;10562012;27;45694;-62
2022/07/01 23:37:56;;;;;;;0.00;0.00;;;17.90;59.40;20.10;94469.00;;;;10561215;27;45132;-62
2022/07/01 23:43:19;;;;;;;0.00;0.00;;;17.90;59.40;20.10;94460.00;;;;10575680;22;45223;-63
2022/07/01 23:48:39;;;;;;;0.10;0.10;;;17.90;59.40;20.10;94467.00;;;;10561112;27;45220;-63
2022/07/01 23:54:00;;;;;;;0.00;0.00;;;17.90;59.40;20.10;94461.00;;;;10525376;28;45175;-63